• Join FlightAware (Why Join?)
  • Login
  • US Flag 
02:35PM EDT


 

Airport Tracker/Info


-or-


 

Live Flight TrackerFlight Track Log ✈ JBU56 ✈ 01-May-2013 ✈ KJFK - KBTV

Flight Track Log - Related Links

Times and Time Zones

All times are in EDT time to prevent confusion due to time zone crossing. See the JBU56 flight status page for this flight to view local times or setup timezone preferences in your user account.

Time Position Orientation Groundspeed Altitude Reporting Facility
EDT Latitude Longitude Course Direction KTS MPH feet Rate Location/Type
10:14AM 40.6667 -73.7333 21° North 176 203 2,000  Level New York TRACON
10:15AM 40.6667 -73.6667 90° East 219 252 4,900 1,680 Climbing New York TRACON
10:15AM 40.7167 -73.6167 37° Northeast 252 290 5,300 2,160 Climbing New York TRACON
10:16AM 40.9481 -73.6010 21° North  Level FlightAware Approximate
10:17AM 41.0307 -73.5574 27° Northeast  Level FlightAware Approximate
10:17AM 40.7833 -73.5500 37° Northeast 267 307 9,300  Level New York TRACON
10:18AM 41.1102 -73.5044 27° Northeast  Level FlightAware Approximate
10:19AM 41.1908 -73.4546 21° North  Level FlightAware Approximate
10:19AM 40.9339 -73.5639 356° North 266 306 14,700  Level Boston Center
10:20AM 41.0278 -73.5544 North 299 344 17,000 1,860 Climbing Boston Center
10:21AM 41.1200 -73.5036 23° Northeast 320 368 18,500 1,920 Climbing Boston Center
10:22AM 41.2164 -73.4528 22° Northeast 345 397 20,900 1,200 Climbing Boston Center
10:23AM 41.3106 -73.4044 21° North 361 415 21,000  Climbing Boston Center
10:24AM 41.4089 -73.3533 21° North 366 421 21,000  Level Boston Center
10:25AM 41.5094 -73.2800 29° Northeast 371 427 21,000  Level Boston Center
10:26AM 41.5747 -73.1892 46° Northeast 371 427 21,000  Level Boston Center
10:27AM 41.6628 -73.1208 30° Northeast 371 427 21,000  Level Boston Center
10:28AM 41.7669 -73.1303 356° North 346 398 21,000  Level Boston Center
10:29AM 41.8689 -73.1511 351° North 352 405 21,000  Level Boston Center
10:30AM 41.9750 -73.1689 353° North 369 425 21,000  Level Boston Center
10:31AM 42.0792 -73.1869 353° North 374 430 21,000  Level Boston Center
10:32AM 42.1831 -73.2050 353° North 374 430 21,000  Level Boston Center
10:33AM 42.2872 -73.2258 352° North 374 430 21,000  Level Boston Center
10:34AM 42.3997 -73.2414 354° North 367 422 21,000  Level Boston Center
10:35AM 42.4953 -73.2567 353° North 372 428 21,000  Level Boston Center
10:36AM 42.6119 -73.2808 351° North 372 428 21,000  Level Boston Center
10:37AM 42.7161 -73.2992 353° North 372 428 21,000  Level Boston Center
10:38AM 42.8408 -73.3208 353° North 372 428 21,000  Level Boston Center
10:39AM 42.9658 -73.3422 353° North 372 428 21,000  Level Boston Center
10:40AM 43.0700 -73.3383 North 372 428 21,000  Level Boston Center
10:41AM 43.1744 -73.3256 North 365 420 21,000  Level Boston Center
10:42AM 43.2767 -73.3097 North 365 420 21,000  Level Boston Center
10:43AM 43.3789 -73.2969 North 365 420 21,000 -780 Level Boston Center
10:44AM 43.4811 -73.2842 North 365 420 19,500 -1,500 Descending Boston Center
10:45AM 43.5831 -73.2742 North 365 420 18,000 -1,500 Descending Boston Center
10:46AM 43.6811 -73.2583 North 365 420 16,600 -1,620 Descending Boston Center
10:47AM 43.7772 -73.2453 North 348 400 14,800 -1,800 Descending Boston Center
10:48AM 43.8708 -73.2464 360° North 343 395 13,000 -1,800 Descending Boston Center
10:49AM 43.9667 -73.2592 355° North 343 395 11,200 -1,560 Descending Boston Center
10:50AM 44.0519 -73.2692 355° North 329 379 9,900 -1,560 Descending Boston Center
10:51AM 44.1311 -73.2789 355° North 291 335 8,100 -1,800 Descending Boston Center
10:52AM 44.2081 -73.2917 353° North 279 321 6,300 -1,680 Descending Boston Center
10:53AM 44.2747 -73.3100 349° North 274 315 4,800 -1,500 Descending Boston Center
10:54AM 44.3453 -73.3369 345° North 269 310 3,400 -900 Descending Boston Center
10:55AM 44.4117 -73.3672 342° North 257 296 3,000 -180 Descending Boston Center
10:56AM 44.4678 -73.3942 341° North 229 264 3,100 -60 Climbing Boston Center
10:57AM 44.5078 -73.3628 29° Northeast 161 185 2,900 -600 Descending Boston Center
10:58AM 44.5247 -73.2961 70° East 149 171 1,900 -600 Descending Boston Center
10:59AM 44.5253 -73.2408 89° East 140 161 1,800 -420 Descending Boston Center
11:00AM 44.5025 -73.2025 130° Southeast 127 146 1,100 -720 Descending Boston Center